Time;durP1;ratioP1;P1;durP2;ratioP2;P2;SDS_P1;SDS_P2;PMS_P1;PMS_P2;Temp;Humidity;BMP_temperature;BMP_pressure;BME280_temperature;BME280_humidity;BME280_pressure;Samples;Min_cycle;Max_cycle;Signal;HPM_P1;HPM_P2
2023/12/12 00:00:29;;;;;;;;;;;7.90;99.90;;;;;;5084172;28;19920;-76
2023/12/12 00:02:56;;;;;;;;;;;7.90;99.90;;;;;;5084109;28;19966;-76
2023/12/12 00:05:21;;;;;;;;;;;7.90;99.90;;;;;;5083856;28;19921;-75
2023/12/12 00:07:48;;;;;;;;;;;7.90;99.90;;;;;;5084076;28;20090;-75
2023/12/12 00:10:15;;;;;;;;;;;7.90;99.90;;;;;;5083774;28;19988;-76
2023/12/12 00:12:41;;;;;;;;;;;7.90;99.90;;;;;;5084002;28;19939;-76
2023/12/12 00:15:08;;;;;;;;;;;7.90;99.90;;;;;;5083676;28;19963;-76
2023/12/12 00:17:36;;;;;;;;;;;7.90;99.90;;;;;;5083667;28;20169;-76
2023/12/12 00:20:04;;;;;;;;;;;7.80;99.90;;;;;;5083863;28;19952;-75
2023/12/12 00:22:30;;;;;;;;;;;7.80;99.90;;;;;;5083585;28;19921;-75
2023/12/12 00:24:57;;;;;;;;;;;7.80;99.90;;;;;;5083522;28;19928;-75
2023/12/12 00:27:23;;;;;;;;;;;7.80;99.90;;;;;;5083780;28;19921;-75
2023/12/12 00:29:50;;;;;;;;;;;7.80;99.90;;;;;;5083382;28;19920;-75
2023/12/12 00:32:17;;;;;;;;;;;7.80;99.90;;;;;;5083828;28;19927;-76
2023/12/12 00:34:45;;;;;;;;;;;7.80;99.90;;;;;;5083698;28;20063;-75
2023/12/12 00:37:11;;;;;;;;;;;7.80;99.90;;;;;;5083794;28;20165;-75
2023/12/12 00:39:39;;;;;;;;;;;7.80;99.90;;;;;;5083601;28;19984;-75
2023/12/12 00:42:06;;;;;;;;;;;7.80;99.90;;;;;;5083648;28;19985;-75
2023/12/12 00:44:34;;;;;;;;;;;7.80;99.90;;;;;;5083445;28;19958;-75
2023/12/12 00:47:00;;;;;;;;;;;7.70;99.90;;;;;;5083258;28;19983;-76
2023/12/12 00:49:27;;;;;;;;;;;7.70;99.90;;;;;;5083579;28;19920;-75
2023/12/12 00:51:55;;;;;;;;;;;7.70;99.90;;;;;;5083637;28;19920;-77
2023/12/12 00:54:22;;;;;;;;;;;7.60;99.90;;;;;;5083555;28;19984;-76
2023/12/12 00:56:48;;;;;;;;;;;7.70;99.90;;;;;;5083975;28;19921;-75
2023/12/12 00:59:15;;;;;;;;;;;7.70;99.90;;;;;;5085587;28;19999;-75
2023/12/12 01:01:42;;;;;;;;;;;7.70;99.90;;;;;;5088146;28;20268;-75
2023/12/12 01:04:08;;;;;;;;;;;7.70;99.90;;;;;;5087379;28;19983;-75
2023/12/12 01:06:35;;;;;;;;;;;7.70;99.90;;;;;;5101897;28;19920;-74
2023/12/12 01:09:03;;;;;;;;;;;7.70;99.90;;;;;;5095457;28;19983;-75
2023/12/12 01:11:29;;;;;;;;;;;7.70;99.90;;;;;;5087290;28;19983;-75
2023/12/12 01:13:56;;;;;;;;;;;7.60;99.90;;;;;;5087204;28;19991;-75
2023/12/12 01:16:23;;;;;;;;;;;7.60;99.90;;;;;;5087004;28;20147;-75
2023/12/12 01:18:49;;;;;;;;;;;7.60;99.90;;;;;;5087338;28;19927;-75
2023/12/12 01:21:16;;;;;;;;;;;7.60;99.90;;;;;;5086222;28;19952;-75
2023/12/12 01:23:52;;;;;;;;;;;7.60;99.90;;;;;;5086846;28;20256;-75
2023/12/12 01:26:21;;;;;;;;;;;7.70;99.90;;;;;;5086876;28;19920;-74
2023/12/12 01:28:48;;;;;;;;;;;7.70;99.90;;;;;;5087325;28;19991;-74
2023/12/12 01:31:14;;;;;;;;;;;7.70;99.90;;;;;;5087385;28;19971;-75
2023/12/12 01:33:41;;;;;;;;;;;7.70;99.90;;;;;;5081868;28;19921;-75
2023/12/12 01:36:08;;;;;;;;;;;7.70;99.90;;;;;;5086657;28;19962;-75
2023/12/12 01:38:35;;;;;;;;;;;7.70;99.90;;;;;;5086785;28;19978;-74
2023/12/12 01:41:37;;;;;;;;;;;7.70;99.90;;;;;;5086918;28;19963;-77
2023/12/12 01:46:53;;;;;;;;;;;7.70;99.90;;;;;;5078483;28;19920;-75
2023/12/12 01:52:18;;;;;;;;;;;7.60;99.90;;;;;;5039796;28;19916;-74
2023/12/12 01:54:45;;;;;;;;;;;7.60;99.90;;;;;;5086078;28;19956;-74
2023/12/12 01:57:12;;;;;;;;;;;7.60;99.90;;;;;;5086352;28;19921;-75
2023/12/12 01:59:40;;;;;;;;;;;7.60;99.90;;;;;;5086443;28;19927;-74
2023/12/12 02:02:07;;;;;;;;;;;7.60;99.90;;;;;;5086377;28;20139;-76
2023/12/12 02:04:34;;;;;;;;;;;7.60;99.90;;;;;;5086329;28;20173;-74
2023/12/12 02:07:02;;;;;;;;;;;7.60;99.90;;;;;;5086300;28;19980;-74
2023/12/12 02:09:29;;;;;;;;;;;7.70;99.90;;;;;;5086070;28;19928;-74
2023/12/12 02:11:56;;;;;;;;;;;7.70;99.90;;;;;;5085051;28;19920;-75
2023/12/12 02:14:22;;;;;;;;;;;7.60;99.90;;;;;;5087191;28;19987;-74
2023/12/12 02:16:50;;;;;;;;;;;7.60;99.90;;;;;;5087327;28;19920;-76
2023/12/12 02:19:17;;;;;;;;;;;7.60;99.90;;;;;;5087106;28;19983;-74
2023/12/12 02:21:45;;;;;;;;;;;7.60;99.90;;;;;;5087075;28;19987;-75
2023/12/12 02:24:11;;;;;;;;;;;7.50;99.90;;;;;;5086318;28;19920;-75
2023/12/12 02:26:38;;;;;;;;;;;7.50;99.90;;;;;;5085220;28;19920;-75
2023/12/12 02:29:05;;;;;;;;;;;7.50;99.90;;;;;;5085461;28;19959;-75
2023/12/12 02:31:31;;;;;;;;;;;7.50;99.90;;;;;;5085819;28;20261;-75
2023/12/12 02:33:58;;;;;;;;;;;7.50;99.90;;;;;;5085462;28;19987;-75
2023/12/12 02:36:24;;;;;;;;;;;7.50;99.90;;;;;;5085485;28;20243;-75
2023/12/12 02:38:52;;;;;;;;;;;7.50;99.90;;;;;;5085357;28;20248;-77
2023/12/12 02:41:19;;;;;;;;;;;7.50;99.90;;;;;;5085503;28;19927;-75
2023/12/12 02:43:45;;;;;;;;;;;7.50;99.90;;;;;;5085635;28;19987;-75
2023/12/12 02:46:12;;;;;;;;;;;7.40;99.90;;;;;;5085144;28;19995;-75
2023/12/12 02:48:39;;;;;;;;;;;7.40;99.90;;;;;;5085128;28;19951;-75
2023/12/12 02:51:05;;;;;;;;;;;7.40;99.90;;;;;;5085316;28;19952;-75
2023/12/12 02:53:32;;;;;;;;;;;7.40;99.90;;;;;;5085208;28;19987;-75
2023/12/12 02:56:00;;;;;;;;;;;7.30;99.90;;;;;;5085093;28;19955;-75
2023/12/12 02:58:27;;;;;;;;;;;7.30;99.90;;;;;;5084977;28;19959;-74
2023/12/12 03:00:53;;;;;;;;;;;7.30;99.90;;;;;;5084920;28;20285;-77
2023/12/12 03:03:20;;;;;;;;;;;7.30;99.90;;;;;;5085317;28;19927;-75
2023/12/12 03:05:46;;;;;;;;;;;7.30;99.90;;;;;;5084667;28;19920;-75
2023/12/12 03:08:13;;;;;;;;;;;7.30;99.90;;;;;;5085174;28;19988;-74
2023/12/12 03:10:40;;;;;;;;;;;7.30;99.90;;;;;;5084880;28;19959;-75
2023/12/12 03:13:08;;;;;;;;;;;7.30;99.90;;;;;;5084939;28;19920;-74
2023/12/12 03:15:34;;;;;;;;;;;7.30;99.90;;;;;;5084475;28;20121;-75
2023/12/12 03:18:01;;;;;;;;;;;7.30;99.90;;;;;;5084545;28;19921;-75
2023/12/12 03:20:28;;;;;;;;;;;7.30;99.90;;;;;;5084917;28;19943;-74
2023/12/12 03:22:54;;;;;;;;;;;7.30;99.90;;;;;;5083758;28;19995;-75
2023/12/12 03:25:21;;;;;;;;;;;7.30;99.90;;;;;;5084577;28;19983;-74
2023/12/12 03:27:47;;;;;;;;;;;7.20;99.90;;;;;;5084578;28;19959;-75
2023/12/12 03:30:15;;;;;;;;;;;7.30;99.90;;;;;;5084743;28;20117;-75
2023/12/12 03:32:42;;;;;;;;;;;7.30;99.90;;;;;;5084556;28;19920;-75
2023/12/12 03:35:15;;;;;;;;;;;7.30;99.90;;;;;;5084783;28;19983;-77
2023/12/12 03:37:41;;;;;;;;;;;7.20;99.90;;;;;;5084277;28;20217;-75
2023/12/12 03:40:09;;;;;;;;;;;7.20;99.90;;;;;;5084508;28;20208;-75
2023/12/12 03:42:36;;;;;;;;;;;7.20;99.90;;;;;;5084233;28;19962;-75
2023/12/12 03:45:03;;;;;;;;;;;7.20;99.90;;;;;;5083803;28;20173;-75
2023/12/12 03:47:31;;;;;;;;;;;7.20;99.90;;;;;;5084145;28;19920;-75
2023/12/12 03:49:57;;;;;;;;;;;7.20;99.90;;;;;;5083785;28;20185;-75
2023/12/12 03:52:24;;;;;;;;;;;7.20;99.90;;;;;;5084305;28;19927;-75
2023/12/12 03:54:51;;;;;;;;;;;7.20;99.90;;;;;;5083573;28;19920;-75
2023/12/12 03:57:17;;;;;;;;;;;7.30;99.90;;;;;;5084098;28;20098;-75
2023/12/12 03:59:44;;;;;;;;;;;7.20;99.90;;;;;;5083730;28;19920;-75
2023/12/12 04:02:10;;;;;;;;;;;7.20;99.90;;;;;;5084062;28;19966;-75
2023/12/12 04:04:38;;;;;;;;;;;7.20;99.90;;;;;;5083853;28;20112;-75
2023/12/12 04:07:05;;;;;;;;;;;7.20;99.90;;;;;;5084020;28;19999;-75
2023/12/12 04:09:32;;;;;;;;;;;7.20;99.90;;;;;;5083708;28;19920;-75
2023/12/12 04:11:58;;;;;;;;;;;7.20;99.90;;;;;;5083884;28;19930;-75
2023/12/12 04:14:25;;;;;;;;;;;7.20;99.90;;;;;;5083766;28;19920;-75
2023/12/12 04:16:51;;;;;;;;;;;7.10;99.90;;;;;;5083792;28;20094;-75
2023/12/12 04:19:18;;;;;;;;;;;7.20;99.90;;;;;;5083817;28;19983;-75
2023/12/12 04:21:46;;;;;;;;;;;7.10;99.90;;;;;;5083842;28;20374;-75
2023/12/12 04:24:12;;;;;;;;;;;7.10;99.90;;;;;;5083497;28;19955;-75
2023/12/12 04:26:39;;;;;;;;;;;7.10;99.90;;;;;;5083817;28;19921;-75
2023/12/12 04:29:06;;;;;;;;;;;7.10;99.90;;;;;;5084295;28;19920;-75
2023/12/12 04:31:32;;;;;;;;;;;7.00;99.90;;;;;;5083737;28;19987;-75
2023/12/12 04:33:59;;;;;;;;;;;7.00;99.90;;;;;;5082968;28;19920;-75
2023/12/12 04:36:25;;;;;;;;;;;7.00;99.90;;;;;;5083379;28;19921;-75
2023/12/12 04:38:53;;;;;;;;;;;7.00;99.90;;;;;;5083756;28;19924;-75
2023/12/12 04:41:20;;;;;;;;;;;7.00;99.90;;;;;;5083369;28;19920;-75
2023/12/12 04:43:47;;;;;;;;;;;7.00;99.90;;;;;;5083580;28;19920;-75
2023/12/12 04:46:18;;;;;;;;;;;7.00;99.90;;;;;;5083286;28;20375;-75
2023/12/12 04:48:45;;;;;;;;;;;7.00;99.90;;;;;;5083336;28;19959;-75
2023/12/12 04:51:11;;;;;;;;;;;7.00;99.90;;;;;;5083344;28;20000;-75
2023/12/12 04:53:38;;;;;;;;;;;7.00;99.90;;;;;;5083527;28;20177;-75
2023/12/12 04:56:07;;;;;;;;;;;7.00;99.90;;;;;;5083363;28;19920;-75
2023/12/12 04:58:34;;;;;;;;;;;7.00;99.90;;;;;;5083592;28;19920;-75
2023/12/12 05:01:00;;;;;;;;;;;7.00;99.90;;;;;;5083291;28;19920;-75
2023/12/12 05:03:27;;;;;;;;;;;7.00;99.90;;;;;;5083333;28;19920;-75
2023/12/12 05:05:54;;;;;;;;;;;7.00;99.90;;;;;;5083273;28;19992;-75
2023/12/12 05:08:20;;;;;;;;;;;7.00;99.90;;;;;;5075413;28;19999;-75
2023/12/12 05:10:47;;;;;;;;;;;7.00;99.90;;;;;;5082720;28;20113;-74
2023/12/12 05:13:15;;;;;;;;;;;7.00;99.90;;;;;;5083227;28;19935;-74
2023/12/12 05:15:42;;;;;;;;;;;7.00;99.90;;;;;;5083155;28;19920;-74
2023/12/12 05:18:09;;;;;;;;;;;7.00;99.90;;;;;;5082938;28;19925;-74
2023/12/12 05:20:35;;;;;;;;;;;7.00;99.90;;;;;;5082780;28;19995;-74
2023/12/12 05:23:02;;;;;;;;;;;7.00;99.90;;;;;;5083209;28;19952;-76
2023/12/12 05:25:29;;;;;;;;;;;7.00;99.90;;;;;;5092492;28;20170;-76
2023/12/12 05:27:55;;;;;;;;;;;7.00;99.90;;;;;;5100273;28;19924;-74
2023/12/12 05:30:23;;;;;;;;;;;7.00;99.90;;;;;;5099590;28;20004;-74
2023/12/12 05:32:50;;;;;;;;;;;7.00;99.90;;;;;;5094192;28;20201;-74
2023/12/12 05:35:17;;;;;;;;;;;7.00;99.90;;;;;;5098093;28;19920;-74
2023/12/12 05:37:44;;;;;;;;;;;7.00;99.90;;;;;;5100140;28;19970;-74
2023/12/12 05:40:14;;;;;;;;;;;7.00;99.90;;;;;;5097328;28;20168;-75
2023/12/12 05:42:40;;;;;;;;;;;7.00;99.90;;;;;;5098145;28;19926;-75
2023/12/12 05:45:08;;;;;;;;;;;7.00;99.90;;;;;;5098318;28;19928;-74
2023/12/12 05:47:36;;;;;;;;;;;7.00;99.90;;;;;;5103120;28;19942;-74
2023/12/12 05:50:04;;;;;;;;;;;7.00;99.90;;;;;;5100832;28;19927;-74
2023/12/12 05:55:13;;;;;;;;;;;7.00;99.90;;;;;;5087203;28;19947;-75
2023/12/12 05:57:40;;;;;;;;;;;7.00;99.90;;;;;;5101578;28;19966;-75
2023/12/12 06:00:07;;;;;;;;;;;7.00;99.90;;;;;;5100697;28;19962;-75
2023/12/12 06:02:34;;;;;;;;;;;7.00;99.90;;;;;;5096530;28;19979;-74
2023/12/12 06:05:07;;;;;;;;;;;7.00;99.90;;;;;;5086346;28;19996;-75
2023/12/12 06:07:33;;;;;;;;;;;7.00;99.90;;;;;;5092653;28;19977;-74
2023/12/12 06:10:00;;;;;;;;;;;7.00;99.90;;;;;;5093142;28;19920;-75
2023/12/12 06:12:27;;;;;;;;;;;7.10;99.90;;;;;;5086230;28;19956;-74
2023/12/12 06:14:54;;;;;;;;;;;7.10;99.90;;;;;;5089588;28;19920;-74
2023/12/12 06:17:21;;;;;;;;;;;7.10;99.90;;;;;;5080530;28;19970;-76
2023/12/12 06:19:47;;;;;;;;;;;7.00;99.90;;;;;;5085906;28;19983;-75
2023/12/12 06:22:15;;;;;;;;;;;7.00;99.90;;;;;;5091052;28;20214;-74
2023/12/12 06:24:42;;;;;;;;;;;7.00;99.90;;;;;;5097812;28;20225;-74
2023/12/12 06:27:09;;;;;;;;;;;7.00;99.90;;;;;;5088004;28;19927;-74
2023/12/12 06:29:36;;;;;;;;;;;7.00;99.90;;;;;;5088531;28;19920;-74
2023/12/12 06:32:02;;;;;;;;;;;7.00;99.90;;;;;;5092116;28;20260;-73
2023/12/12 06:34:29;;;;;;;;;;;7.00;99.90;;;;;;5085767;28;19989;-74
2023/12/12 06:36:56;;;;;;;;;;;7.00;99.90;;;;;;5088956;28;19921;-76
2023/12/12 06:39:25;;;;;;;;;;;7.00;99.90;;;;;;5085260;28;19924;-76
2023/12/12 06:41:51;;;;;;;;;;;7.00;99.90;;;;;;5085808;28;20015;-76
2023/12/12 06:44:17;;;;;;;;;;;6.90;99.90;;;;;;5084730;28;19975;-76
2023/12/12 06:46:44;;;;;;;;;;;6.90;99.90;;;;;;5085159;28;20095;-76
2023/12/12 06:49:11;;;;;;;;;;;6.90;99.90;;;;;;5085434;28;19979;-76
2023/12/12 06:51:37;;;;;;;;;;;6.80;99.90;;;;;;5085681;28;20118;-76
2023/12/12 06:54:04;;;;;;;;;;;6.90;99.90;;;;;;5084933;28;19988;-76
2023/12/12 06:56:32;;;;;;;;;;;6.80;99.90;;;;;;5084778;28;19920;-76
2023/12/12 06:58:59;;;;;;;;;;;6.80;99.90;;;;;;5084842;28;19921;-75
2023/12/12 07:01:25;;;;;;;;;;;6.80;99.90;;;;;;5085117;28;19995;-76
2023/12/12 07:03:52;;;;;;;;;;;6.80;99.90;;;;;;5084733;28;20209;-76
2023/12/12 07:06:19;;;;;;;;;;;6.80;99.90;;;;;;5084991;28;19956;-76
2023/12/12 07:08:46;;;;;;;;;;;6.80;99.90;;;;;;5085054;28;20141;-76
2023/12/12 07:11:12;;;;;;;;;;;6.80;99.90;;;;;;5084544;28;19921;-75
2023/12/12 07:13:40;;;;;;;;;;;6.70;99.90;;;;;;5084670;28;19920;-76
2023/12/12 07:16:09;;;;;;;;;;;6.70;99.90;;;;;;5084732;28;19962;-76
2023/12/12 07:18:36;;;;;;;;;;;6.70;99.90;;;;;;5084981;28;19927;-75
2023/12/12 07:21:03;;;;;;;;;;;6.70;99.90;;;;;;5084968;28;19987;-76
2023/12/12 07:23:30;;;;;;;;;;;6.70;99.90;;;;;;5084772;28;19987;-76
2023/12/12 07:25:57;;;;;;;;;;;6.70;99.90;;;;;;5081902;28;19927;-76
2023/12/12 07:28:23;;;;;;;;;;;6.70;99.90;;;;;;5084675;28;19999;-76
2023/12/12 07:30:53;;;;;;;;;;;6.60;99.90;;;;;;5084567;28;19921;-76
2023/12/12 07:33:19;;;;;;;;;;;6.60;99.90;;;;;;5084340;28;19929;-76
2023/12/12 07:35:46;;;;;;;;;;;6.60;99.90;;;;;;5084482;28;20110;-76
2023/12/12 07:38:13;;;;;;;;;;;6.50;99.90;;;;;;5084280;28;19920;-76
2023/12/12 07:40:40;;;;;;;;;;;6.50;99.90;;;;;;5084293;28;19928;-76
2023/12/12 07:43:06;;;;;;;;;;;6.50;99.90;;;;;;5084435;28;19995;-76
2023/12/12 07:45:33;;;;;;;;;;;6.50;99.90;;;;;;5084249;28;19927;-75
2023/12/12 07:48:02;;;;;;;;;;;6.50;99.90;;;;;;5074347;28;19925;-75
2023/12/12 07:50:29;;;;;;;;;;;6.40;99.90;;;;;;5083240;28;20218;-75
2023/12/12 07:52:56;;;;;;;;;;;6.50;99.90;;;;;;5083964;28;19920;-75
2023/12/12 07:55:22;;;;;;;;;;;6.40;99.90;;;;;;5077258;28;20117;-75
2023/12/12 07:57:49;;;;;;;;;;;6.40;99.90;;;;;;5083586;28;19959;-75
2023/12/12 08:00:16;;;;;;;;;;;6.40;99.90;;;;;;5091540;28;19920;-75
2023/12/12 08:02:43;;;;;;;;;;;6.30;99.90;;;;;;5083200;28;19920;-75
2023/12/12 08:05:11;;;;;;;;;;;6.40;99.90;;;;;;5082271;28;19995;-75
2023/12/12 08:07:37;;;;;;;;;;;6.40;99.90;;;;;;5083674;28;19927;-75
2023/12/12 08:10:05;;;;;;;;;;;6.30;99.90;;;;;;5090515;28;19927;-75
2023/12/12 08:12:32;;;;;;;;;;;6.20;99.90;;;;;;5083861;28;19983;-75
2023/12/12 08:14:59;;;;;;;;;;;6.20;99.90;;;;;;5090870;28;19925;-75
2023/12/12 08:17:26;;;;;;;;;;;6.20;99.90;;;;;;5083497;28;20224;-75
2023/12/12 08:19:53;;;;;;;;;;;6.10;99.90;;;;;;5083348;28;19920;-75
2023/12/12 08:22:21;;;;;;;;;;;6.10;99.90;;;;;;5083528;28;19984;-75
2023/12/12 08:24:50;;;;;;;;;;;6.10;99.90;;;;;;5083324;28;19921;-75
2023/12/12 08:27:17;;;;;;;;;;;6.10;99.90;;;;;;5083725;28;19920;-75
2023/12/12 08:29:45;;;;;;;;;;;6.10;99.90;;;;;;5083491;28;19952;-75
2023/12/12 08:32:11;;;;;;;;;;;6.10;99.90;;;;;;5083261;28;20214;-75
2023/12/12 08:34:38;;;;;;;;;;;6.00;99.90;;;;;;5083419;28;19921;-75
2023/12/12 08:37:05;;;;;;;;;;;6.00;99.90;;;;;;5083250;28;19921;-75
2023/12/12 08:39:33;;;;;;;;;;;6.00;99.90;;;;;;5083514;28;19921;-75
2023/12/12 08:41:59;;;;;;;;;;;6.00;99.90;;;;;;5083138;28;19921;-75
2023/12/12 08:44:26;;;;;;;;;;;6.00;99.90;;;;;;5083365;28;19987;-75
2023/12/12 08:46:53;;;;;;;;;;;6.10;99.90;;;;;;5083023;28;19920;-75
2023/12/12 08:49:19;;;;;;;;;;;6.10;99.90;;;;;;5083315;28;19993;-75
2023/12/12 08:54:37;;;;;;;;;;;6.20;99.90;;;;;;5066492;28;19927;-75
2023/12/12 08:57:03;;;;;;;;;;;6.30;99.90;;;;;;5083138;28;19920;-75
2023/12/12 08:59:30;;;;;;;;;;;6.30;99.90;;;;;;5083226;28;19983;-75
2023/12/12 09:01:57;;;;;;;;;;;6.40;99.90;;;;;;5083019;28;20188;-75
2023/12/12 09:04:23;;;;;;;;;;;6.40;99.90;;;;;;5083115;28;20126;-75
2023/12/12 09:06:50;;;;;;;;;;;6.50;99.90;;;;;;5083144;28;20229;-75
2023/12/12 09:09:17;;;;;;;;;;;6.50;99.90;;;;;;5082921;28;19921;-75
2023/12/12 09:11:47;;;;;;;;;;;6.60;99.90;;;;;;5083148;28;19964;-75
2023/12/12 09:14:14;;;;;;;;;;;6.60;99.90;;;;;;5082600;28;20018;-75
2023/12/12 09:16:40;;;;;;;;;;;6.60;99.90;;;;;;5083159;28;19921;-75
2023/12/12 09:19:08;;;;;;;;;;;6.60;99.90;;;;;;5082966;28;19927;-75
2023/12/12 09:21:35;;;;;;;;;;;6.70;99.90;;;;;;5086895;28;19920;-74
2023/12/12 09:24:02;;;;;;;;;;;6.70;99.90;;;;;;5086479;28;19927;-75
2023/12/12 09:26:28;;;;;;;;;;;6.70;99.90;;;;;;5086739;28;19920;-75
2023/12/12 09:28:56;;;;;;;;;;;6.70;99.90;;;;;;5086483;28;20264;-75
2023/12/12 09:31:27;;;;;;;;;;;6.80;99.90;;;;;;5086651;28;19987;-75
2023/12/12 09:33:53;;;;;;;;;;;6.90;99.90;;;;;;5086337;28;19958;-75
2023/12/12 09:36:20;;;;;;;;;;;6.90;99.90;;;;;;5086045;28;19956;-75
2023/12/12 09:38:47;;;;;;;;;;;6.90;99.90;;;;;;5086388;28;19995;-75
2023/12/12 09:41:16;;;;;;;;;;;6.80;99.90;;;;;;5086260;28;19996;-75
2023/12/12 09:43:45;;;;;;;;;;;6.90;99.90;;;;;;5086140;28;20285;-75
2023/12/12 09:46:13;;;;;;;;;;;7.00;99.90;;;;;;5086298;28;19920;-75
2023/12/12 09:48:40;;;;;;;;;;;7.00;99.90;;;;;;5086232;28;19935;-75
2023/12/12 09:51:08;;;;;;;;;;;7.00;99.90;;;;;;5086238;28;19943;-75
2023/12/12 09:53:35;;;;;;;;;;;7.10;99.90;;;;;;5086350;28;19927;-75
2023/12/12 09:56:02;;;;;;;;;;;7.10;99.90;;;;;;5085943;28;19921;-75
2023/12/12 09:58:29;;;;;;;;;;;7.10;99.90;;;;;;5085931;28;20232;-75
2023/12/12 10:00:56;;;;;;;;;;;7.20;99.90;;;;;;5085092;28;20214;-75
2023/12/12 10:03:25;;;;;;;;;;;7.20;99.90;;;;;;5086127;28;19984;-75
2023/12/12 10:05:54;;;;;;;;;;;7.30;99.90;;;;;;5085823;28;20206;-75
2023/12/12 10:08:21;;;;;;;;;;;7.30;99.90;;;;;;5085192;28;19928;-75
2023/12/12 10:10:51;;;;;;;;;;;7.30;99.90;;;;;;5085374;28;19927;-75
2023/12/12 10:13:18;;;;;;;;;;;7.20;99.90;;;;;;5085889;28;19950;-75
2023/12/12 10:15:45;;;;;;;;;;;7.20;99.90;;;;;;5085841;28;19920;-76
2023/12/12 10:18:12;;;;;;;;;;;7.20;99.90;;;;;;5085596;28;20263;-76
2023/12/12 10:20:40;;;;;;;;;;;7.30;99.90;;;;;;5086049;28;19921;-76
2023/12/12 10:23:07;;;;;;;;;;;7.30;99.90;;;;;;5085704;28;20095;-75
2023/12/12 10:25:34;;;;;;;;;;;7.30;99.90;;;;;;5085523;28;19920;-76
2023/12/12 10:28:01;;;;;;;;;;;7.30;99.90;;;;;;5085622;28;19943;-75
2023/12/12 10:30:28;;;;;;;;;;;7.30;99.90;;;;;;5085403;28;19921;-75
2023/12/12 10:32:55;;;;;;;;;;;7.30;99.90;;;;;;5084639;28;19920;-74
2023/12/12 10:35:22;;;;;;;;;;;7.30;99.90;;;;;;5085257;28;19956;-75
2023/12/12 10:37:50;;;;;;;;;;;7.30;99.90;;;;;;5085612;28;19958;-75
2023/12/12 10:40:18;;;;;;;;;;;7.30;99.90;;;;;;5085279;28;19996;-75
2023/12/12 10:42:45;;;;;;;;;;;7.40;99.90;;;;;;5085435;28;20149;-76
2023/12/12 10:45:13;;;;;;;;;;;7.40;99.90;;;;;;5084083;28;19987;-76
2023/12/12 10:47:41;;;;;;;;;;;7.40;99.90;;;;;;5085189;28;19924;-75
2023/12/12 10:50:11;;;;;;;;;;;7.40;99.90;;;;;;5085146;28;19927;-76
2023/12/12 10:52:38;;;;;;;;;;;7.40;99.90;;;;;;5084936;28;20027;-75
2023/12/12 10:55:07;;;;;;;;;;;7.50;99.90;;;;;;5084716;28;19927;-75
2023/12/12 10:57:34;;;;;;;;;;;7.50;99.90;;;;;;5085247;28;20168;-75
2023/12/12 11:00:11;;;;;;;;;;;7.50;99.90;;;;;;5084971;28;19921;-75
2023/12/12 11:02:38;;;;;;;;;;;7.40;99.90;;;;;;5084704;28;19995;-74
2023/12/12 11:05:05;;;;;;;;;;;7.40;99.90;;;;;;5084435;28;19959;-74
2023/12/12 11:07:33;;;;;;;;;;;7.40;99.90;;;;;;5084681;28;19983;-75
2023/12/12 11:10:00;;;;;;;;;;;7.40;99.90;;;;;;5084558;28;19920;-75
2023/12/12 11:12:28;;;;;;;;;;;7.40;99.90;;;;;;5077739;28;20109;-75
2023/12/12 11:14:56;;;;;;;;;;;7.40;99.90;;;;;;5084262;28;19983;-74
2023/12/12 11:17:22;;;;;;;;;;;7.40;99.90;;;;;;5084667;28;20112;-74
2023/12/12 11:19:49;;;;;;;;;;;7.40;99.90;;;;;;5084606;28;20174;-75
2023/12/12 11:22:30;;;;;;;;;;;7.40;99.90;;;;;;5083712;28;19980;-74
2023/12/12 11:25:01;;;;;;;;;;;7.40;99.90;;;;;;5083197;28;19979;-73
2023/12/12 11:27:31;;;;;;;;;;;7.40;99.90;;;;;;5077571;28;19917;-74
2023/12/12 11:29:57;;;;;;;;;;;7.50;99.90;;;;;;5084352;28;19920;-75
2023/12/12 11:32:24;;;;;;;;;;;7.50;99.90;;;;;;5083876;28;19987;-74
2023/12/12 11:34:52;;;;;;;;;;;7.50;99.90;;;;;;5084180;28;19921;-74
2023/12/12 11:37:18;;;;;;;;;;;7.50;99.90;;;;;;5084230;28;19991;-74
2023/12/12 11:39:49;;;;;;;;;;;7.60;99.90;;;;;;5084121;28;19920;-75
2023/12/12 11:42:20;;;;;;;;;;;7.60;99.90;;;;;;5083687;28;19921;-75
2023/12/12 11:44:49;;;;;;;;;;;7.60;99.90;;;;;;5083110;28;19920;-75
2023/12/12 11:47:16;;;;;;;;;;;7.60;99.90;;;;;;5083889;28;20113;-74
2023/12/12 11:49:44;;;;;;;;;;;7.60;99.90;;;;;;5083651;28;19958;-74
2023/12/12 11:52:11;;;;;;;;;;;7.60;99.90;;;;;;5083895;28;19924;-74
2023/12/12 11:54:38;;;;;;;;;;;7.60;99.90;;;;;;5083772;28;19983;-74
2023/12/12 11:57:05;;;;;;;;;;;7.60;99.90;;;;;;5084061;28;19921;-76
2023/12/12 11:59:33;;;;;;;;;;;7.60;99.90;;;;;;5084009;28;19928;-74
2023/12/12 12:02:01;;;;;;;;;;;7.60;99.90;;;;;;5083934;28;19920;-76
2023/12/12 12:04:27;;;;;;;;;;;7.60;99.90;;;;;;5076665;28;19921;-76
2023/12/12 12:06:54;;;;;;;;;;;7.60;99.90;;;;;;5084018;28;19926;-74
2023/12/12 12:09:20;;;;;;;;;;;7.60;99.90;;;;;;5082635;28;19951;-74
2023/12/12 12:11:49;;;;;;;;;;;7.70;99.90;;;;;;5083767;28;19987;-74
2023/12/12 12:14:21;;;;;;;;;;;7.70;99.90;;;;;;5083541;28;19958;-75
2023/12/12 12:16:48;;;;;;;;;;;7.70;99.90;;;;;;5083726;28;20202;-75
2023/12/12 12:19:30;;;;;;;;;;;7.80;99.90;;;;;;5083491;28;20178;-75
2023/12/12 12:22:01;;;;;;;;;;;7.80;99.90;;;;;;5083524;28;20279;-75
2023/12/12 12:24:27;;;;;;;;;;;7.90;99.90;;;;;;5083577;28;19927;-75
2023/12/12 12:26:54;;;;;;;;;;;7.90;99.90;;;;;;5083804;28;19948;-75
2023/12/12 12:29:21;;;;;;;;;;;8.00;99.90;;;;;;5083552;28;19927;-75
2023/12/12 12:31:48;;;;;;;;;;;8.00;99.90;;;;;;5083709;28;19995;-75
2023/12/12 12:34:18;;;;;;;;;;;8.00;99.90;;;;;;5083204;28;20304;-74
2023/12/12 12:36:47;;;;;;;;;;;8.00;99.90;;;;;;5083438;28;19920;-75
2023/12/12 12:39:14;;;;;;;;;;;8.10;99.90;;;;;;5083341;28;19940;-75
2023/12/12 12:41:43;;;;;;;;;;;8.10;99.90;;;;;;5083231;28;19952;-75
2023/12/12 12:44:10;;;;;;;;;;;8.10;99.90;;;;;;5082993;28;19962;-75
2023/12/12 12:46:37;;;;;;;;;;;8.10;99.90;;;;;;5083815;28;20003;-74
2023/12/12 12:49:04;;;;;;;;;;;8.10;99.90;;;;;;5082943;28;19952;-75
2023/12/12 12:51:30;;;;;;;;;;;8.10;99.90;;;;;;5083632;28;19920;-74
2023/12/12 12:53:58;;;;;;;;;;;8.10;99.90;;;;;;5083393;28;19943;-75
2023/12/12 12:56:37;;;;;;;;;;;8.10;99.90;;;;;;5087451;28;20149;-76
2023/12/12 12:59:04;;;;;;;;;;;8.10;99.90;;;;;;5087052;28;19946;-75
2023/12/12 13:01:30;;;;;;;;;;;8.10;99.90;;;;;;5087571;28;19992;-76
2023/12/12 13:03:56;;;;;;;;;;;8.10;99.90;;;;;;5087434;28;20109;-76
2023/12/12 13:06:24;;;;;;;;;;;8.10;99.90;;;;;;5087223;28;19991;-76
2023/12/12 13:08:50;;;;;;;;;;;8.10;99.90;;;;;;5087180;28;19943;-76
2023/12/12 13:11:19;;;;;;;;;;;8.10;99.90;;;;;;5086736;28;19987;-76
2023/12/12 13:13:46;;;;;;;;;;;8.20;99.90;;;;;;5087260;28;20228;-74
2023/12/12 13:16:15;;;;;;;;;;;8.20;99.90;;;;;;5087914;28;19920;-75
2023/12/12 13:18:42;;;;;;;;;;;8.20;99.90;;;;;;5087481;28;19930;-75
2023/12/12 13:21:09;;;;;;;;;;;8.10;99.90;;;;;;5086967;28;19920;-74
2023/12/12 13:23:36;;;;;;;;;;;8.10;99.90;;;;;;5086804;28;19928;-74
2023/12/12 13:26:04;;;;;;;;;;;8.20;99.90;;;;;;5086961;28;19987;-75
2023/12/12 13:28:32;;;;;;;;;;;8.10;99.90;;;;;;5093339;28;20248;-75
2023/12/12 13:30:59;;;;;;;;;;;8.10;99.90;;;;;;5086689;28;19947;-75
2023/12/12 13:33:26;;;;;;;;;;;8.10;99.90;;;;;;5086361;28;19995;-74
2023/12/12 13:35:53;;;;;;;;;;;8.10;99.90;;;;;;5086894;28;19920;-75
2023/12/12 13:38:19;;;;;;;;;;;8.10;99.90;;;;;;5086656;28;19921;-75
2023/12/12 13:40:46;;;;;;;;;;;8.10;99.90;;;;;;5086829;28;19978;-75
2023/12/12 13:43:12;;;;;;;;;;;8.10;99.90;;;;;;5086496;28;19920;-75
2023/12/12 13:45:40;;;;;;;;;;;8.10;99.90;;;;;;5086564;28;19951;-75
2023/12/12 13:48:07;;;;;;;;;;;8.10;99.90;;;;;;5086296;28;20269;-76
2023/12/12 13:50:34;;;;;;;;;;;8.10;99.90;;;;;;5087308;28;19952;-76
2023/12/12 13:53:00;;;;;;;;;;;8.20;99.90;;;;;;5087051;28;19924;-74
2023/12/12 13:55:27;;;;;;;;;;;8.20;99.90;;;;;;5086959;28;20277;-75
2023/12/12 13:57:54;;;;;;;;;;;8.10;99.90;;;;;;5086482;28;19952;-76
2023/12/12 14:00:21;;;;;;;;;;;8.10;99.90;;;;;;5086214;28;19920;-75
2023/12/12 14:02:49;;;;;;;;;;;8.10;99.90;;;;;;5090913;28;19934;-75
2023/12/12 14:05:16;;;;;;;;;;;8.10;99.90;;;;;;5086442;28;19959;-75
2023/12/12 14:07:42;;;;;;;;;;;8.10;99.90;;;;;;5085312;28;19920;-75
2023/12/12 14:10:10;;;;;;;;;;;8.10;99.90;;;;;;5093075;28;19984;-75
2023/12/12 14:12:36;;;;;;;;;;;8.10;99.90;;;;;;5093102;28;19920;-75
2023/12/12 14:15:04;;;;;;;;;;;8.10;99.90;;;;;;5085739;28;19920;-76
2023/12/12 14:17:31;;;;;;;;;;;8.10;99.90;;;;;;5079839;28;20126;-76
2023/12/12 14:19:59;;;;;;;;;;;8.10;99.90;;;;;;5085895;28;19956;-74
2023/12/12 14:22:26;;;;;;;;;;;8.10;99.90;;;;;;5085003;28;19963;-73
2023/12/12 14:24:52;;;;;;;;;;;8.10;99.90;;;;;;5085420;28;19921;-73
2023/12/12 14:27:20;;;;;;;;;;;8.10;99.90;;;;;;5086079;28;19976;-73
2023/12/12 14:29:46;;;;;;;;;;;8.10;99.90;;;;;;5085650;28;19921;-72
2023/12/12 14:32:16;;;;;;;;;;;8.10;99.90;;;;;;5085714;28;19921;-73
2023/12/12 14:34:44;;;;;;;;;;;8.10;99.90;;;;;;5077704;28;19920;-73
2023/12/12 14:37:12;;;;;;;;;;;8.10;99.90;;;;;;5085671;28;19924;-72
2023/12/12 14:39:39;;;;;;;;;;;8.10;99.90;;;;;;5085703;28;19999;-72
2023/12/12 14:42:06;;;;;;;;;;;8.10;99.90;;;;;;5085205;28;19955;-73